sensor_id;sensor_type;location;lat;lon;timestamp;P1;durP1;ratioP1;P2;durP2;ratioP2
11222;SDS011;5668;52.012;8.724;2022-09-21T00:01:09;3.93;;;3.53;;
11222;SDS011;5668;52.012;8.724;2022-09-21T00:03:38;3.43;;;3.13;;
11222;SDS011;5668;52.012;8.724;2022-09-21T00:06:07;3.40;;;3.10;;
11222;SDS011;5668;52.012;8.724;2022-09-21T00:08:36;4.03;;;3.60;;
11222;SDS011;5668;52.012;8.724;2022-09-21T00:11:03;3.97;;;3.20;;
11222;SDS011;5668;52.012;8.724;2022-09-21T00:13:34;3.07;;;2.77;;
11222;SDS011;5668;52.012;8.724;2022-09-21T00:16:03;4.20;;;3.37;;
11222;SDS011;5668;52.012;8.724;2022-09-21T00:18:32;4.37;;;3.60;;
11222;SDS011;5668;52.012;8.724;2022-09-21T00:21:00;4.20;;;3.20;;
11222;SDS011;5668;52.012;8.724;2022-09-21T00:23:27;4.93;;;3.40;;
11222;SDS011;5668;52.012;8.724;2022-09-21T00:26:02;4.00;;;3.20;;
11222;SDS011;5668;52.012;8.724;2022-09-21T00:28:31;3.70;;;3.10;;
11222;SDS011;5668;52.012;8.724;2022-09-21T00:31:01;3.70;;;3.17;;
11222;SDS011;5668;52.012;8.724;2022-09-21T00:33:29;3.37;;;2.70;;
11222;SDS011;5668;52.012;8.724;2022-09-21T00:36:00;3.63;;;3.30;;
11222;SDS011;5668;52.012;8.724;2022-09-21T00:38:28;3.20;;;2.90;;
11222;SDS011;5668;52.012;8.724;2022-09-21T00:40:56;4.47;;;3.07;;
11222;SDS011;5668;52.012;8.724;2022-09-21T00:43:23;5.33;;;3.40;;
11222;SDS011;5668;52.012;8.724;2022-09-21T00:45:51;3.93;;;2.93;;
11222;SDS011;5668;52.012;8.724;2022-09-21T00:48:27;4.43;;;3.00;;
11222;SDS011;5668;52.012;8.724;2022-09-21T00:50:55;3.73;;;2.90;;
11222;SDS011;5668;52.012;8.724;2022-09-21T00:53:25;4.33;;;2.77;;
11222;SDS011;5668;52.012;8.724;2022-09-21T00:55:54;3.00;;;2.77;;
11222;SDS011;5668;52.012;8.724;2022-09-21T00:58:24;2.83;;;2.57;;
11222;SDS011;5668;52.012;8.724;2022-09-21T01:00:54;4.53;;;3.30;;
11222;SDS011;5668;52.012;8.724;2022-09-21T01:03:24;4.03;;;2.70;;
11222;SDS011;5668;52.012;8.724;2022-09-21T01:05:53;5.27;;;2.70;;
11222;SDS011;5668;52.012;8.724;2022-09-21T01:08:21;2.93;;;2.63;;
11222;SDS011;5668;52.012;8.724;2022-09-21T01:10:56;2.77;;;2.53;;
11222;SDS011;5668;52.012;8.724;2022-09-21T01:13:40;4.20;;;2.93;;
11222;SDS011;5668;52.012;8.724;2022-09-21T01:16:17;3.83;;;2.50;;
11222;SDS011;5668;52.012;8.724;2022-09-21T01:18:50;2.87;;;2.40;;
11222;SDS011;5668;52.012;8.724;2022-09-21T01:21:24;2.73;;;2.10;;
11222;SDS011;5668;52.012;8.724;2022-09-21T01:27:06;2.80;;;2.20;;
11222;SDS011;5668;52.012;8.724;2022-09-21T01:29:58;3.47;;;2.13;;
11222;SDS011;5668;52.012;8.724;2022-09-21T01:32:29;3.10;;;2.10;;
11222;SDS011;5668;52.012;8.724;2022-09-21T01:35:02;3.80;;;2.23;;
11222;SDS011;5668;52.012;8.724;2022-09-21T01:37:34;3.70;;;2.10;;
11222;SDS011;5668;52.012;8.724;2022-09-21T01:40:07;2.80;;;2.03;;
11222;SDS011;5668;52.012;8.724;2022-09-21T01:42:39;2.23;;;1.90;;
11222;SDS011;5668;52.012;8.724;2022-09-21T01:45:11;4.27;;;2.53;;
11222;SDS011;5668;52.012;8.724;2022-09-21T01:47:41;5.33;;;2.10;;
11222;SDS011;5668;52.012;8.724;2022-09-21T01:50:11;2.20;;;2.00;;
11222;SDS011;5668;52.012;8.724;2022-09-21T01:52:43;2.73;;;2.00;;
11222;SDS011;5668;52.012;8.724;2022-09-21T01:55:17;2.17;;;1.97;;
11222;SDS011;5668;52.012;8.724;2022-09-21T01:57:49;4.57;;;2.27;;
11222;SDS011;5668;52.012;8.724;2022-09-21T02:00:22;2.07;;;1.70;;
11222;SDS011;5668;52.012;8.724;2022-09-21T02:02:51;2.53;;;2.10;;
11222;SDS011;5668;52.012;8.724;2022-09-21T02:05:24;2.40;;;1.70;;
11222;SDS011;5668;52.012;8.724;2022-09-21T02:07:54;2.23;;;1.73;;
11222;SDS011;5668;52.012;8.724;2022-09-21T02:10:23;2.03;;;1.80;;
11222;SDS011;5668;52.012;8.724;2022-09-21T02:12:56;2.27;;;1.60;;
11222;SDS011;5668;52.012;8.724;2022-09-21T02:15:31;3.13;;;1.80;;
11222;SDS011;5668;52.012;8.724;2022-09-21T02:18:11;2.50;;;1.70;;
11222;SDS011;5668;52.012;8.724;2022-09-21T02:20:51;2.30;;;2.10;;
11222;SDS011;5668;52.012;8.724;2022-09-21T02:23:23;2.33;;;1.97;;
11222;SDS011;5668;52.012;8.724;2022-09-21T02:25:56;2.10;;;1.80;;
11222;SDS011;5668;52.012;8.724;2022-09-21T02:28:31;4.90;;;2.23;;
11222;SDS011;5668;52.012;8.724;2022-09-21T02:31:08;2.20;;;2.00;;
11222;SDS011;5668;52.012;8.724;2022-09-21T02:33:41;2.87;;;2.20;;
11222;SDS011;5668;52.012;8.724;2022-09-21T02:36:16;2.63;;;1.80;;
11222;SDS011;5668;52.012;8.724;2022-09-21T02:38:50;2.20;;;1.97;;
11222;SDS011;5668;52.012;8.724;2022-09-21T02:41:22;2.53;;;2.27;;
11222;SDS011;5668;52.012;8.724;2022-09-21T02:43:57;3.17;;;2.37;;
11222;SDS011;5668;52.012;8.724;2022-09-21T02:46:31;2.63;;;2.43;;
11222;SDS011;5668;52.012;8.724;2022-09-21T02:49:02;2.80;;;2.57;;
11222;SDS011;5668;52.012;8.724;2022-09-21T02:51:34;3.00;;;2.70;;
11222;SDS011;5668;52.012;8.724;2022-09-21T02:54:05;3.20;;;2.80;;
11222;SDS011;5668;52.012;8.724;2022-09-21T02:56:37;3.83;;;2.60;;
11222;SDS011;5668;52.012;8.724;2022-09-21T02:59:06;2.50;;;2.30;;
11222;SDS011;5668;52.012;8.724;2022-09-21T03:01:34;2.37;;;2.17;;
11222;SDS011;5668;52.012;8.724;2022-09-21T03:04:04;2.93;;;2.63;;
11222;SDS011;5668;52.012;8.724;2022-09-21T03:06:31;2.07;;;1.97;;
11222;SDS011;5668;52.012;8.724;2022-09-21T03:08:59;2.50;;;2.30;;
11222;SDS011;5668;52.012;8.724;2022-09-21T03:11:26;2.30;;;2.10;;
11222;SDS011;5668;52.012;8.724;2022-09-21T03:13:54;2.30;;;2.10;;
11222;SDS011;5668;52.012;8.724;2022-09-21T03:16:21;2.23;;;2.10;;
11222;SDS011;5668;52.012;8.724;2022-09-21T03:18:50;2.00;;;1.90;;
11222;SDS011;5668;52.012;8.724;2022-09-21T03:21:17;2.10;;;1.90;;
11222;SDS011;5668;52.012;8.724;2022-09-21T03:23:46;1.80;;;1.70;;
11222;SDS011;5668;52.012;8.724;2022-09-21T03:26:13;2.13;;;2.00;;
11222;SDS011;5668;52.012;8.724;2022-09-21T03:28:40;1.70;;;1.60;;
11222;SDS011;5668;52.012;8.724;2022-09-21T03:31:07;1.93;;;1.83;;
11222;SDS011;5668;52.012;8.724;2022-09-21T03:33:34;1.90;;;1.80;;
11222;SDS011;5668;52.012;8.724;2022-09-21T03:36:03;2.57;;;1.70;;
11222;SDS011;5668;52.012;8.724;2022-09-21T03:38:30;2.00;;;1.80;;
11222;SDS011;5668;52.012;8.724;2022-09-21T03:40:58;1.50;;;1.40;;
11222;SDS011;5668;52.012;8.724;2022-09-21T03:43:25;2.00;;;1.90;;
11222;SDS011;5668;52.012;8.724;2022-09-21T03:45:52;1.70;;;1.60;;
11222;SDS011;5668;52.012;8.724;2022-09-21T03:48:19;2.00;;;1.90;;
11222;SDS011;5668;52.012;8.724;2022-09-21T03:50:46;1.90;;;1.80;;
11222;SDS011;5668;52.012;8.724;2022-09-21T03:53:15;1.70;;;1.60;;
11222;SDS011;5668;52.012;8.724;2022-09-21T03:55:42;2.00;;;1.90;;
11222;SDS011;5668;52.012;8.724;2022-09-21T03:58:09;2.70;;;1.97;;
11222;SDS011;5668;52.012;8.724;2022-09-21T04:00:36;2.33;;;2.10;;
11222;SDS011;5668;52.012;8.724;2022-09-21T04:03:04;2.20;;;2.00;;
11222;SDS011;5668;52.012;8.724;2022-09-21T04:05:31;2.50;;;2.30;;
11222;SDS011;5668;52.012;8.724;2022-09-21T04:07:58;2.10;;;1.90;;
11222;SDS011;5668;52.012;8.724;2022-09-21T04:10:27;2.90;;;2.30;;
11222;SDS011;5668;52.012;8.724;2022-09-21T04:12:57;2.00;;;1.90;;
11222;SDS011;5668;52.012;8.724;2022-09-21T04:15:25;2.23;;;2.03;;
11222;SDS011;5668;52.012;8.724;2022-09-21T04:17:53;2.03;;;1.90;;
11222;SDS011;5668;52.012;8.724;2022-09-21T04:20:21;2.00;;;1.90;;
11222;SDS011;5668;52.012;8.724;2022-09-21T04:22:48;1.73;;;1.63;;
11222;SDS011;5668;52.012;8.724;2022-09-21T04:25:15;2.53;;;2.33;;
11222;SDS011;5668;52.012;8.724;2022-09-21T04:27:44;2.40;;;2.23;;
11222;SDS011;5668;52.012;8.724;2022-09-21T04:30:12;2.50;;;2.30;;
11222;SDS011;5668;52.012;8.724;2022-09-21T04:32:41;2.30;;;2.10;;
11222;SDS011;5668;52.012;8.724;2022-09-21T04:35:09;2.20;;;2.00;;
11222;SDS011;5668;52.012;8.724;2022-09-21T04:37:36;2.00;;;1.90;;
11222;SDS011;5668;52.012;8.724;2022-09-21T04:40:04;2.10;;;2.00;;
11222;SDS011;5668;52.012;8.724;2022-09-21T04:42:34;2.37;;;2.10;;
11222;SDS011;5668;52.012;8.724;2022-09-21T04:45:02;1.80;;;1.70;;
11222;SDS011;5668;52.012;8.724;2022-09-21T04:47:30;2.33;;;2.13;;
11222;SDS011;5668;52.012;8.724;2022-09-21T04:49:57;2.17;;;2.03;;
11222;SDS011;5668;52.012;8.724;2022-09-21T04:52:24;2.87;;;1.90;;
11222;SDS011;5668;52.012;8.724;2022-09-21T04:54:51;2.23;;;1.90;;
11222;SDS011;5668;52.012;8.724;2022-09-21T04:57:19;2.00;;;1.90;;
11222;SDS011;5668;52.012;8.724;2022-09-21T04:59:46;2.07;;;1.90;;
11222;SDS011;5668;52.012;8.724;2022-09-21T05:02:14;2.07;;;1.93;;
11222;SDS011;5668;52.012;8.724;2022-09-21T05:04:42;1.83;;;1.73;;
11222;SDS011;5668;52.012;8.724;2022-09-21T05:07:09;2.47;;;2.27;;
11222;SDS011;5668;52.012;8.724;2022-09-21T05:09:36;1.90;;;1.80;;
11222;SDS011;5668;52.012;8.724;2022-09-21T05:12:21;1.80;;;1.70;;
11222;SDS011;5668;52.012;8.724;2022-09-21T05:14:48;2.60;;;1.93;;
11222;SDS011;5668;52.012;8.724;2022-09-21T05:17:16;2.10;;;1.90;;
11222;SDS011;5668;52.012;8.724;2022-09-21T05:19:46;2.80;;;2.00;;
11222;SDS011;5668;52.012;8.724;2022-09-21T05:22:13;2.00;;;1.90;;
11222;SDS011;5668;52.012;8.724;2022-09-21T05:24:41;1.80;;;1.70;;
11222;SDS011;5668;52.012;8.724;2022-09-21T05:27:08;3.03;;;1.83;;
11222;SDS011;5668;52.012;8.724;2022-09-21T05:29:35;2.00;;;1.90;;
11222;SDS011;5668;52.012;8.724;2022-09-21T05:32:04;2.10;;;1.77;;
11222;SDS011;5668;52.012;8.724;2022-09-21T05:34:42;2.90;;;1.90;;
11222;SDS011;5668;52.012;8.724;2022-09-21T05:37:24;2.63;;;2.00;;
11222;SDS011;5668;52.012;8.724;2022-09-21T05:40:03;2.40;;;1.70;;
11222;SDS011;5668;52.012;8.724;2022-09-21T05:42:33;3.23;;;2.10;;
11222;SDS011;5668;52.012;8.724;2022-09-21T05:45:01;3.67;;;2.07;;
11222;SDS011;5668;52.012;8.724;2022-09-21T05:47:32;2.00;;;1.80;;
11222;SDS011;5668;52.012;8.724;2022-09-21T05:50:12;2.33;;;2.13;;
11222;SDS011;5668;52.012;8.724;2022-09-21T05:53:00;2.10;;;1.93;;
11222;SDS011;5668;52.012;8.724;2022-09-21T05:55:39;3.93;;;1.80;;
11222;SDS011;5668;52.012;8.724;2022-09-21T05:58:16;1.90;;;1.77;;
11222;SDS011;5668;52.012;8.724;2022-09-21T06:00:56;2.13;;;1.93;;
11222;SDS011;5668;52.012;8.724;2022-09-21T06:03:30;2.40;;;1.87;;
11222;SDS011;5668;52.012;8.724;2022-09-21T06:06:01;2.67;;;2.20;;
11222;SDS011;5668;52.012;8.724;2022-09-21T06:08:28;3.17;;;2.10;;
11222;SDS011;5668;52.012;8.724;2022-09-21T06:10:55;2.07;;;1.97;;
11222;SDS011;5668;52.012;8.724;2022-09-21T06:13:23;2.00;;;1.90;;
11222;SDS011;5668;52.012;8.724;2022-09-21T06:15:50;2.50;;;2.30;;
11222;SDS011;5668;52.012;8.724;2022-09-21T06:18:18;2.17;;;1.97;;
11222;SDS011;5668;52.012;8.724;2022-09-21T06:20:45;2.13;;;2.00;;
11222;SDS011;5668;52.012;8.724;2022-09-21T06:23:13;1.87;;;1.77;;
11222;SDS011;5668;52.012;8.724;2022-09-21T06:25:40;2.10;;;1.93;;
11222;SDS011;5668;52.012;8.724;2022-09-21T06:28:08;2.27;;;2.07;;
11222;SDS011;5668;52.012;8.724;2022-09-21T06:30:37;2.40;;;2.20;;
11222;SDS011;5668;52.012;8.724;2022-09-21T06:33:06;2.37;;;2.17;;
11222;SDS011;5668;52.012;8.724;2022-09-21T06:35:34;3.00;;;2.30;;
11222;SDS011;5668;52.012;8.724;2022-09-21T06:38:03;3.07;;;2.40;;
11222;SDS011;5668;52.012;8.724;2022-09-21T06:40:33;2.77;;;2.43;;
11222;SDS011;5668;52.012;8.724;2022-09-21T06:43:02;2.60;;;2.40;;
11222;SDS011;5668;52.012;8.724;2022-09-21T06:45:30;3.13;;;2.83;;
11222;SDS011;5668;52.012;8.724;2022-09-21T06:47:57;3.07;;;2.43;;
11222;SDS011;5668;52.012;8.724;2022-09-21T06:50:25;2.70;;;2.50;;
11222;SDS011;5668;52.012;8.724;2022-09-21T06:52:52;2.67;;;2.47;;
11222;SDS011;5668;52.012;8.724;2022-09-21T06:55:20;2.90;;;2.70;;
11222;SDS011;5668;52.012;8.724;2022-09-21T06:57:48;3.47;;;3.17;;
11222;SDS011;5668;52.012;8.724;2022-09-21T07:00:15;3.63;;;3.33;;
11222;SDS011;5668;52.012;8.724;2022-09-21T07:02:43;3.23;;;2.93;;
11222;SDS011;5668;52.012;8.724;2022-09-21T07:05:10;5.83;;;3.67;;
11222;SDS011;5668;52.012;8.724;2022-09-21T07:07:38;4.70;;;4.30;;
11222;SDS011;5668;52.012;8.724;2022-09-21T07:10:05;4.43;;;3.70;;
11222;SDS011;5668;52.012;8.724;2022-09-21T07:12:34;4.50;;;4.10;;
11222;SDS011;5668;52.012;8.724;2022-09-21T07:15:04;4.40;;;4.00;;
11222;SDS011;5668;52.012;8.724;2022-09-21T07:17:32;4.70;;;4.20;;
11222;SDS011;5668;52.012;8.724;2022-09-21T07:20:00;5.07;;;4.57;;
11222;SDS011;5668;52.012;8.724;2022-09-21T07:22:29;6.73;;;6.03;;
11222;SDS011;5668;52.012;8.724;2022-09-21T07:24:57;9.73;;;8.73;;
11222;SDS011;5668;52.012;8.724;2022-09-21T07:27:26;12.83;;;11.83;;
11222;SDS011;5668;52.012;8.724;2022-09-21T07:29:55;10.57;;;8.13;;
11222;SDS011;5668;52.012;8.724;2022-09-21T07:32:24;7.13;;;6.43;;
11222;SDS011;5668;52.012;8.724;2022-09-21T07:34:51;7.67;;;6.97;;
11222;SDS011;5668;52.012;8.724;2022-09-21T07:37:21;8.70;;;7.40;;
11222;SDS011;5668;52.012;8.724;2022-09-21T07:39:48;10.77;;;8.20;;
11222;SDS011;5668;52.012;8.724;2022-09-21T07:42:16;8.33;;;7.30;;
11222;SDS011;5668;52.012;8.724;2022-09-21T07:44:44;7.73;;;6.93;;
11222;SDS011;5668;52.012;8.724;2022-09-21T07:47:11;9.00;;;8.10;;
11222;SDS011;5668;52.012;8.724;2022-09-21T07:49:40;8.10;;;7.30;;
11222;SDS011;5668;52.012;8.724;2022-09-21T07:52:07;8.60;;;7.30;;
11222;SDS011;5668;52.012;8.724;2022-09-21T07:54:34;8.20;;;6.83;;
11222;SDS011;5668;52.012;8.724;2022-09-21T07:57:02;6.93;;;6.30;;
11222;SDS011;5668;52.012;8.724;2022-09-21T07:59:46;7.87;;;6.27;;
11222;SDS011;5668;52.012;8.724;2022-09-21T08:02:14;8.63;;;6.53;;
11222;SDS011;5668;52.012;8.724;2022-09-21T08:04:42;6.80;;;6.10;;
11222;SDS011;5668;52.012;8.724;2022-09-21T08:07:09;6.50;;;5.90;;
11222;SDS011;5668;52.012;8.724;2022-09-21T08:09:37;11.13;;;10.13;;
11222;SDS011;5668;52.012;8.724;2022-09-21T08:12:04;11.60;;;10.60;;
11222;SDS011;5668;52.012;8.724;2022-09-21T08:14:32;11.90;;;10.90;;
11222;SDS011;5668;52.012;8.724;2022-09-21T08:17:00;12.97;;;11.83;;
11222;SDS011;5668;52.012;8.724;2022-09-21T08:19:27;10.60;;;9.70;;
11222;SDS011;5668;52.012;8.724;2022-09-21T08:21:55;9.97;;;9.10;;
11222;SDS011;5668;52.012;8.724;2022-09-21T08:24:23;9.00;;;8.20;;
11222;SDS011;5668;52.012;8.724;2022-09-21T08:26:51;10.97;;;9.97;;
11222;SDS011;5668;52.012;8.724;2022-09-21T08:29:19;9.27;;;8.07;;
11222;SDS011;5668;52.012;8.724;2022-09-21T08:31:46;8.77;;;8.00;;
11222;SDS011;5668;52.012;8.724;2022-09-21T08:34:13;9.53;;;8.33;;
11222;SDS011;5668;52.012;8.724;2022-09-21T08:36:41;10.60;;;9.70;;
11222;SDS011;5668;52.012;8.724;2022-09-21T08:39:09;10.97;;;9.93;;
11222;SDS011;5668;52.012;8.724;2022-09-21T08:41:44;12.83;;;11.63;;
11222;SDS011;5668;52.012;8.724;2022-09-21T08:44:23;9.40;;;8.50;;
11222;SDS011;5668;52.012;8.724;2022-09-21T08:46:57;10.90;;;8.30;;
11222;SDS011;5668;52.012;8.724;2022-09-21T08:49:30;9.37;;;8.50;;
11222;SDS011;5668;52.012;8.724;2022-09-21T08:52:02;9.47;;;8.53;;
11222;SDS011;5668;52.012;8.724;2022-09-21T08:54:35;11.03;;;9.20;;
11222;SDS011;5668;52.012;8.724;2022-09-21T08:57:10;8.53;;;7.50;;
11222;SDS011;5668;52.012;8.724;2022-09-21T08:59:39;8.93;;;7.73;;
11222;SDS011;5668;52.012;8.724;2022-09-21T09:02:17;8.47;;;6.93;;
11222;SDS011;5668;52.012;8.724;2022-09-21T09:05:00;8.13;;;7.27;;
11222;SDS011;5668;52.012;8.724;2022-09-21T09:07:40;7.77;;;6.97;;
11222;SDS011;5668;52.012;8.724;2022-09-21T09:10:33;8.87;;;6.13;;
11222;SDS011;5668;52.012;8.724;2022-09-21T09:13:08;7.80;;;6.00;;
11222;SDS011;5668;52.012;8.724;2022-09-21T09:15:55;7.27;;;5.87;;
11222;SDS011;5668;52.012;8.724;2022-09-21T09:18:32;7.43;;;5.07;;
11222;SDS011;5668;52.012;8.724;2022-09-21T09:21:07;9.37;;;5.17;;
11222;SDS011;5668;52.012;8.724;2022-09-21T09:23:38;7.73;;;4.70;;
11222;SDS011;5668;52.012;8.724;2022-09-21T09:26:14;6.63;;;3.93;;
11222;SDS011;5668;52.012;8.724;2022-09-21T09:28:47;7.33;;;3.97;;
11222;SDS011;5668;52.012;8.724;2022-09-21T09:31:20;7.57;;;4.10;;
11222;SDS011;5668;52.012;8.724;2022-09-21T09:33:54;7.30;;;4.17;;
11222;SDS011;5668;52.012;8.724;2022-09-21T09:36:26;5.50;;;3.50;;
11222;SDS011;5668;52.012;8.724;2022-09-21T09:38:57;8.00;;;3.50;;
11222;SDS011;5668;52.012;8.724;2022-09-21T09:44:39;6.13;;;2.40;;
11222;SDS011;5668;52.012;8.724;2022-09-21T09:47:26;5.97;;;2.77;;
11222;SDS011;5668;52.012;8.724;2022-09-21T09:50:04;4.00;;;1.80;;
11222;SDS011;5668;52.012;8.724;2022-09-21T09:52:37;4.20;;;1.40;;
11222;SDS011;5668;52.012;8.724;2022-09-21T09:55:10;6.57;;;1.63;;
11222;SDS011;5668;52.012;8.724;2022-09-21T09:57:45;6.40;;;1.63;;
11222;SDS011;5668;52.012;8.724;2022-09-21T10:00:13;2.47;;;1.23;;
11222;SDS011;5668;52.012;8.724;2022-09-21T10:02:46;4.13;;;1.45;;
11222;SDS011;5668;52.012;8.724;2022-09-21T10:05:18;3.72;;;1.33;;
11222;SDS011;5668;52.012;8.724;2022-09-21T10:07:47;5.20;;;1.85;;
11222;SDS011;5668;52.012;8.724;2022-09-21T10:10:23;4.65;;;1.60;;
11222;SDS011;5668;52.012;8.724;2022-09-21T10:13:05;4.18;;;1.70;;
11222;SDS011;5668;52.012;8.724;2022-09-21T10:15:39;4.63;;;1.55;;
11222;SDS011;5668;52.012;8.724;2022-09-21T10:18:14;4.35;;;1.67;;
11222;SDS011;5668;52.012;8.724;2022-09-21T10:20:50;6.25;;;1.77;;
11222;SDS011;5668;52.012;8.724;2022-09-21T10:23:19;3.60;;;1.10;;
11222;SDS011;5668;52.012;8.724;2022-09-21T10:25:51;5.80;;;1.77;;
11222;SDS011;5668;52.012;8.724;2022-09-21T10:28:22;4.70;;;1.23;;
11222;SDS011;5668;52.012;8.724;2022-09-21T10:30:50;5.72;;;1.45;;
11222;SDS011;5668;52.012;8.724;2022-09-21T10:33:48;3.45;;;1.10;;
11222;SDS011;5668;52.012;8.724;2022-09-21T10:36:27;3.33;;;1.20;;
11222;SDS011;5668;52.012;8.724;2022-09-21T10:39:09;2.05;;;1.05;;
11222;SDS011;5668;52.012;8.724;2022-09-21T10:41:47;5.55;;;1.52;;
11222;SDS011;5668;52.012;8.724;2022-09-21T10:44:17;3.47;;;1.17;;
11222;SDS011;5668;52.012;8.724;2022-09-21T10:46:47;6.15;;;1.45;;
11222;SDS011;5668;52.012;8.724;2022-09-21T10:49:16;3.08;;;1.38;;
11222;SDS011;5668;52.012;8.724;2022-09-21T10:51:47;3.28;;;1.60;;
11222;SDS011;5668;52.012;8.724;2022-09-21T10:54:21;4.15;;;1.63;;
11222;SDS011;5668;52.012;8.724;2022-09-21T10:56:52;3.17;;;1.42;;
11222;SDS011;5668;52.012;8.724;2022-09-21T10:59:24;1.80;;;1.10;;
11222;SDS011;5668;52.012;8.724;2022-09-21T11:01:53;4.10;;;1.40;;
11222;SDS011;5668;52.012;8.724;2022-09-21T11:04:25;3.33;;;1.30;;
11222;SDS011;5668;52.012;8.724;2022-09-21T11:06:59;3.33;;;1.15;;
11222;SDS011;5668;52.012;8.724;2022-09-21T11:09:35;2.97;;;1.08;;
11222;SDS011;5668;52.012;8.724;2022-09-21T11:12:11;3.05;;;0.90;;
11222;SDS011;5668;52.012;8.724;2022-09-21T11:14:52;3.47;;;0.90;;
11222;SDS011;5668;52.012;8.724;2022-09-21T11:17:28;2.95;;;1.00;;
11222;SDS011;5668;52.012;8.724;2022-09-21T11:20:04;1.73;;;0.82;;
11222;SDS011;5668;52.012;8.724;2022-09-21T11:22:41;4.38;;;1.10;;
11222;SDS011;5668;52.012;8.724;2022-09-21T11:25:21;5.32;;;1.70;;
11222;SDS011;5668;52.012;8.724;2022-09-21T11:27:58;3.92;;;1.45;;
11222;SDS011;5668;52.012;8.724;2022-09-21T11:30:36;3.65;;;1.10;;
11222;SDS011;5668;52.012;8.724;2022-09-21T11:33:25;5.47;;;1.00;;
11222;SDS011;5668;52.012;8.724;2022-09-21T11:36:19;3.75;;;0.90;;
11222;SDS011;5668;52.012;8.724;2022-09-21T11:38:59;2.38;;;0.80;;
11222;SDS011;5668;52.012;8.724;2022-09-21T11:41:49;2.95;;;1.17;;
11222;SDS011;5668;52.012;8.724;2022-09-21T11:44:32;2.10;;;0.98;;
11222;SDS011;5668;52.012;8.724;2022-09-21T11:47:16;3.08;;;0.80;;
11222;SDS011;5668;52.012;8.724;2022-09-21T11:50:04;3.63;;;0.93;;
11222;SDS011;5668;52.012;8.724;2022-09-21T11:52:54;4.47;;;0.90;;
11222;SDS011;5668;52.012;8.724;2022-09-21T11:55:40;3.10;;;1.10;;
11222;SDS011;5668;52.012;8.724;2022-09-21T11:58:23;3.67;;;0.95;;
11222;SDS011;5668;52.012;8.724;2022-09-21T12:01:00;2.63;;;0.80;;
11222;SDS011;5668;52.012;8.724;2022-09-21T12:03:39;2.55;;;0.90;;
11222;SDS011;5668;52.012;8.724;2022-09-21T12:06:31;1.42;;;0.63;;
11222;SDS011;5668;52.012;8.724;2022-09-21T12:12:13;1.80;;;0.80;;
11222;SDS011;5668;52.012;8.724;2022-09-21T12:14:48;3.10;;;0.80;;
11222;SDS011;5668;52.012;8.724;2022-09-21T12:17:23;2.85;;;0.90;;
11222;SDS011;5668;52.012;8.724;2022-09-21T12:20:02;3.22;;;0.65;;
11222;SDS011;5668;52.012;8.724;2022-09-21T12:22:37;2.58;;;1.05;;
11222;SDS011;5668;52.012;8.724;2022-09-21T12:25:11;2.78;;;0.85;;
11222;SDS011;5668;52.012;8.724;2022-09-21T12:27:43;3.42;;;0.77;;
11222;SDS011;5668;52.012;8.724;2022-09-21T12:30:14;1.25;;;0.73;;
11222;SDS011;5668;52.012;8.724;2022-09-21T12:32:45;2.72;;;0.73;;
11222;SDS011;5668;52.012;8.724;2022-09-21T12:35:23;2.78;;;0.80;;
11222;SDS011;5668;52.012;8.724;2022-09-21T12:37:56;2.50;;;0.98;;
11222;SDS011;5668;52.012;8.724;2022-09-21T12:40:30;4.43;;;1.05;;
11222;SDS011;5668;52.012;8.724;2022-09-21T12:43:05;2.38;;;0.90;;
11222;SDS011;5668;52.012;8.724;2022-09-21T12:45:39;1.77;;;0.60;;
11222;SDS011;5668;52.012;8.724;2022-09-21T12:48:13;2.88;;;0.80;;
11222;SDS011;5668;52.012;8.724;2022-09-21T12:50:51;3.47;;;0.95;;
11222;SDS011;5668;52.012;8.724;2022-09-21T12:53:23;2.53;;;0.75;;
11222;SDS011;5668;52.012;8.724;2022-09-21T12:55:54;5.53;;;1.10;;
11222;SDS011;5668;52.012;8.724;2022-09-21T12:58:30;3.25;;;0.75;;
11222;SDS011;5668;52.012;8.724;2022-09-21T13:01:10;1.98;;;0.70;;
11222;SDS011;5668;52.012;8.724;2022-09-21T13:03:47;3.00;;;1.10;;
11222;SDS011;5668;52.012;8.724;2022-09-21T13:06:36;1.92;;;0.75;;
11222;SDS011;5668;52.012;8.724;2022-09-21T13:09:16;2.50;;;0.77;;
11222;SDS011;5668;52.012;8.724;2022-09-21T13:11:50;2.60;;;0.90;;
11222;SDS011;5668;52.012;8.724;2022-09-21T13:14:20;2.17;;;0.85;;
11222;SDS011;5668;52.012;8.724;2022-09-21T13:16:53;4.50;;;0.90;;
11222;SDS011;5668;52.012;8.724;2022-09-21T13:19:25;1.35;;;0.60;;
11222;SDS011;5668;52.012;8.724;2022-09-21T13:22:12;2.60;;;0.80;;
11222;SDS011;5668;52.012;8.724;2022-09-21T13:24:56;2.78;;;1.02;;
11222;SDS011;5668;52.012;8.724;2022-09-21T13:30:32;3.03;;;0.70;;
11222;SDS011;5668;52.012;8.724;2022-09-21T13:33:27;1.50;;;0.68;;
11222;SDS011;5668;52.012;8.724;2022-09-21T13:36:08;1.50;;;0.80;;
11222;SDS011;5668;52.012;8.724;2022-09-21T13:38:56;3.17;;;1.10;;
11222;SDS011;5668;52.012;8.724;2022-09-21T13:41:41;2.80;;;0.90;;
11222;SDS011;5668;52.012;8.724;2022-09-21T13:44:17;2.28;;;0.90;;
11222;SDS011;5668;52.012;8.724;2022-09-21T13:46:50;4.10;;;1.20;;
11222;SDS011;5668;52.012;8.724;2022-09-21T13:49:21;3.13;;;1.20;;
11222;SDS011;5668;52.012;8.724;2022-09-21T13:52:20;1.98;;;1.35;;
11222;SDS011;5668;52.012;8.724;2022-09-21T13:54:54;2.22;;;1.23;;
11222;SDS011;5668;52.012;8.724;2022-09-21T13:57:25;5.20;;;1.65;;
11222;SDS011;5668;52.012;8.724;2022-09-21T14:03:01;2.10;;;0.95;;
11222;SDS011;5668;52.012;8.724;2022-09-21T14:05:32;2.47;;;0.82;;
11222;SDS011;5668;52.012;8.724;2022-09-21T14:08:05;2.35;;;0.90;;
11222;SDS011;5668;52.012;8.724;2022-09-21T14:10:48;2.17;;;0.88;;
11222;SDS011;5668;52.012;8.724;2022-09-21T14:13:24;3.35;;;0.90;;
11222;SDS011;5668;52.012;8.724;2022-09-21T14:16:00;2.03;;;0.80;;
11222;SDS011;5668;52.012;8.724;2022-09-21T14:25:26;13.50;;;2.90;;
11222;SDS011;5668;52.012;8.724;2022-09-21T14:28:01;9.80;;;2.45;;
11222;SDS011;5668;52.012;8.724;2022-09-21T14:30:36;10.68;;;3.17;;
11222;SDS011;5668;52.012;8.724;2022-09-21T14:33:18;10.13;;;2.88;;
11222;SDS011;5668;52.012;8.724;2022-09-21T14:35:50;51.40;;;17.10;;
11222;SDS011;5668;52.012;8.724;2022-09-21T14:38:21;58.22;;;19.27;;
11222;SDS011;5668;52.012;8.724;2022-09-21T14:40:51;36.78;;;10.98;;
11222;SDS011;5668;52.012;8.724;2022-09-21T14:43:24;26.85;;;7.38;;
11222;SDS011;5668;52.012;8.724;2022-09-21T14:46:00;18.27;;;6.55;;
11222;SDS011;5668;52.012;8.724;2022-09-21T14:48:41;21.00;;;6.70;;
11222;SDS011;5668;52.012;8.724;2022-09-21T14:51:17;6.28;;;2.60;;
11222;SDS011;5668;52.012;8.724;2022-09-21T14:53:59;6.75;;;2.08;;
11222;SDS011;5668;52.012;8.724;2022-09-21T14:56:48;6.90;;;2.35;;
11222;SDS011;5668;52.012;8.724;2022-09-21T14:59:31;7.38;;;2.42;;
11222;SDS011;5668;52.012;8.724;2022-09-21T15:02:14;7.63;;;2.22;;
11222;SDS011;5668;52.012;8.724;2022-09-21T15:04:57;5.80;;;1.38;;
11222;SDS011;5668;52.012;8.724;2022-09-21T15:07:33;6.05;;;1.52;;
11222;SDS011;5668;52.012;8.724;2022-09-21T15:10:25;4.22;;;0.98;;
11222;SDS011;5668;52.012;8.724;2022-09-21T15:13:20;2.30;;;0.93;;
11222;SDS011;5668;52.012;8.724;2022-09-21T15:16:02;2.75;;;0.90;;
11222;SDS011;5668;52.012;8.724;2022-09-21T15:18:49;3.15;;;1.08;;
11222;SDS011;5668;52.012;8.724;2022-09-21T15:21:28;3.20;;;0.93;;
11222;SDS011;5668;52.012;8.724;2022-09-21T15:23:57;2.17;;;0.80;;
11222;SDS011;5668;52.012;8.724;2022-09-21T15:26:35;3.40;;;1.27;;
11222;SDS011;5668;52.012;8.724;2022-09-21T15:29:04;3.03;;;0.93;;
11222;SDS011;5668;52.012;8.724;2022-09-21T15:31:34;2.25;;;0.85;;
11222;SDS011;5668;52.012;8.724;2022-09-21T15:34:03;2.95;;;1.23;;
11222;SDS011;5668;52.012;8.724;2022-09-21T15:36:32;2.60;;;0.90;;
11222;SDS011;5668;52.012;8.724;2022-09-21T15:39:01;2.17;;;1.02;;
11222;SDS011;5668;52.012;8.724;2022-09-21T15:41:37;3.47;;;0.98;;
11222;SDS011;5668;52.012;8.724;2022-09-21T15:44:11;3.20;;;0.82;;
11222;SDS011;5668;52.012;8.724;2022-09-21T15:46:42;2.22;;;0.70;;
11222;SDS011;5668;52.012;8.724;2022-09-21T15:49:11;3.17;;;0.90;;
11222;SDS011;5668;52.012;8.724;2022-09-21T15:51:41;1.83;;;1.10;;
11222;SDS011;5668;52.012;8.724;2022-09-21T15:54:24;1.98;;;0.93;;
11222;SDS011;5668;52.012;8.724;2022-09-21T15:56:56;2.05;;;1.10;;